Potosí, Bolivia

11:52 AM BOT en Agosto 04, 2015 (GMT -0400)
Potosi | | Change Station
CLOSE
Current Station
Aeropuerto
Location: Potosi,
Altura: 12907 ft
Estaciones meteorológicas cercanas

Alt 12907 ft 19.54 °S, 65.72 °W | Updated 52 minutes ago

Clear
Despejado
57 ° F
Sensación térmica 57 ° F
N
6
Viento Variable Viento desde OSO

Hoy
Alta -- | Baja -- ° F
--% Posibilidad de precipitaciones
Ayer
Alta -- | Baja -- ° F
Precip. -- pul
6:50 AM 6:07 PM
Gibosa menguante, 76% visible
Presión 30.71 pul
Visibilidad 6.2 Millas
Nubes
Punto de rocío 23 ° F
Humedad 27%
Precipitaciones 0.00 pul
Espesor de la nieve No disponible.
UV No disponible.
Polen No disponible.
Calidad del aire No disponible.
Flu Activity No disponible.
METAR SLPO 041500Z 24005KT 9999 NSC 14/M05 Q1040

More Conditions Fewer Conditions

Presión 30.71 pul
Visibilidad 6.2 Millas
Nubes
Punto de rocío 23 ° F
Humedad 27%
Precipitaciones 0.00 pul
Espesor de la nieve No disponible.
UV No disponible.
Polen No disponible.
Calidad del aire No disponible.
Flu Activity No disponible.
METAR SLPO 041500Z 24005KT 9999 NSC 14/M05 Q1040

More Conditions Fewer Conditions

10-Day Weather Forecast

×

Almanac

Astronomía

Aug. 04, 2015 Salida Puesta
Hora real
Crepúsculo civil
Crepúsculo náutico
Crepúsculo astronómico
Luna
Horas de luz
Horas de luz
Tomorrow will be .
, % of the Moon is Illuminated

Extremos de hoy

Máximos del país Bajas del país

Community

WunderPhotos

Upload Photos

1,843,909 ¡fotos cargadas!

WunderBlogs® & News

Nearby

Calidad del aire

  Calidad del aire Índice AQ Contaminante
Not available.

Grosos de nieve

Estación Profundido Altura

Actividad de terremotos

Ciudad Distance Mag. Tiempo y dato
Magnitud mínima muestra es 2,5.

Temperaturas de aguas costeras

Lugar Temperatura

Stations

Estaciones meteorológicas cercanas

Ubicación de la estación Temp. Vientos helados Punto de rocío Humedad Viento Precip. Alt Actualizado Tipo